sensor_id;sensor_type;location;lat;lon;timestamp;pressure;altitude;pressure_sealevel;temperature;humidity
79589;BME280;69067;51.930;4.492;2023-04-24T00:01:30;99860.72;;;19.51;48.90
79589;BME280;69067;51.930;4.492;2023-04-24T00:03:56;99859.69;;;19.52;49.22
79589;BME280;69067;51.930;4.492;2023-04-24T00:06:25;99862.19;;;19.53;49.29
79589;BME280;69067;51.930;4.492;2023-04-24T00:09:01;99866.94;;;19.51;48.90
79589;BME280;69067;51.930;4.492;2023-04-24T00:11:28;99861.78;;;19.50;49.21
79589;BME280;69067;51.930;4.492;2023-04-24T00:13:54;99869.88;;;19.50;49.46
79589;BME280;69067;51.930;4.492;2023-04-24T00:16:21;99867.56;;;19.53;49.01
79589;BME280;69067;51.930;4.492;2023-04-24T00:18:47;99865.50;;;19.49;48.75
79589;BME280;69067;51.930;4.492;2023-04-24T00:21:16;99866.75;;;19.53;48.24
79589;BME280;69067;51.930;4.492;2023-04-24T00:23:43;99868.81;;;19.51;48.67
79589;BME280;69067;51.930;4.492;2023-04-24T00:26:10;99867.97;;;19.50;49.02
79589;BME280;69067;51.930;4.492;2023-04-24T00:28:35;99866.94;;;19.51;49.04
79589;BME280;69067;51.930;4.492;2023-04-24T00:31:01;99868.81;;;19.51;48.50
79589;BME280;69067;51.930;4.492;2023-04-24T00:33:27;99865.06;;;19.52;48.88
79589;BME280;69067;51.930;4.492;2023-04-24T00:35:53;99868.59;;;19.52;48.56
79589;BME280;69067;51.930;4.492;2023-04-24T00:38:19;99873.59;;;19.49;48.24
79589;BME280;69067;51.930;4.492;2023-04-24T00:40:44;99870.47;;;19.52;49.56
79589;BME280;69067;51.930;4.492;2023-04-24T00:43:11;99874.44;;;19.49;48.29
79589;BME280;69067;51.930;4.492;2023-04-24T00:45:37;99881.28;;;19.52;48.68
79589;BME280;69067;51.930;4.492;2023-04-24T00:48:04;99871.50;;;19.51;48.41
79589;BME280;69067;51.930;4.492;2023-04-24T00:50:30;99867.97;;;19.50;48.26
79589;BME280;69067;51.930;4.492;2023-04-24T00:52:56;99881.28;;;19.52;48.27
79589;BME280;69067;51.930;4.492;2023-04-24T00:55:22;99872.34;;;19.51;48.49
79589;BME280;69067;51.930;4.492;2023-04-24T00:57:48;99868.81;;;19.51;49.04
79589;BME280;69067;51.930;4.492;2023-04-24T01:00:15;99870.66;;;19.50;48.22
79589;BME280;69067;51.930;4.492;2023-04-24T01:02:43;99876.31;;;19.49;49.58
79589;BME280;69067;51.930;4.492;2023-04-24T01:05:12;99865.50;;;19.49;48.95
79589;BME280;69067;51.930;4.492;2023-04-24T01:07:40;99867.16;;;19.50;48.00
79589;BME280;69067;51.930;4.492;2023-04-24T01:10:09;99868.19;;;19.49;49.18
79589;BME280;69067;51.930;4.492;2023-04-24T01:12:36;99858.44;;;19.48;48.94
79589;BME280;69067;51.930;4.492;2023-04-24T01:15:02;99863.84;;;19.48;48.30
79589;BME280;69067;51.930;4.492;2023-04-24T01:17:29;99863.41;;;19.51;48.39
79589;BME280;69067;51.930;4.492;2023-04-24T01:19:55;99851.16;;;19.48;48.89
79589;BME280;69067;51.930;4.492;2023-04-24T01:22:22;99859.88;;;19.50;48.73
79589;BME280;69067;51.930;4.492;2023-04-24T01:24:48;99856.75;;;19.47;48.66
79589;BME280;69067;51.930;4.492;2023-04-24T01:27:14;99860.31;;;19.47;48.21
79589;BME280;69067;51.930;4.492;2023-04-24T01:29:40;99862.56;;;19.50;48.83
79589;BME280;69067;51.930;4.492;2023-04-24T01:32:06;99865.50;;;19.49;48.80
79589;BME280;69067;51.930;4.492;2023-04-24T01:34:33;99869.03;;;19.49;49.31
79589;BME280;69067;51.930;4.492;2023-04-24T01:36:59;99869.03;;;19.49;48.65
79589;BME280;69067;51.930;4.492;2023-04-24T01:39:26;99866.34;;;19.49;48.69
79589;BME280;69067;51.930;4.492;2023-04-24T01:41:54;99861.13;;;19.48;48.15
79589;BME280;69067;51.930;4.492;2023-04-24T01:44:21;99874.44;;;19.49;48.43
79589;BME280;69067;51.930;4.492;2023-04-24T01:46:47;99870.91;;;19.49;49.21
79589;BME280;69067;51.930;4.492;2023-04-24T01:49:13;99862.81;;;19.49;48.23
79589;BME280;69067;51.930;4.492;2023-04-24T01:51:39;99868.56;;;19.46;48.48
79589;BME280;69067;51.930;4.492;2023-04-24T01:54:04;99866.53;;;19.48;48.26
79589;BME280;69067;51.930;4.492;2023-04-24T01:56:33;99863.16;;;19.46;49.06
79589;BME280;69067;51.930;4.492;2023-04-24T01:59:02;99861.97;;;19.48;48.94
79589;BME280;69067;51.930;4.492;2023-04-24T02:01:34;99858.44;;;19.48;49.59
79589;BME280;69067;51.930;4.492;2023-04-24T02:04:01;99856.75;;;19.47;48.70
79589;BME280;69067;51.930;4.492;2023-04-24T02:06:27;99852.38;;;19.46;48.23
79589;BME280;69067;51.930;4.492;2023-04-24T02:08:53;99853.41;;;19.45;49.14
79589;BME280;69067;51.930;4.492;2023-04-24T02:11:19;99858.44;;;19.48;48.94
79589;BME280;69067;51.930;4.492;2023-04-24T02:13:44;99852.38;;;19.46;48.69
79589;BME280;69067;51.930;4.492;2023-04-24T02:16:10;99851.72;;;19.44;48.58
79589;BME280;69067;51.930;4.492;2023-04-24T02:18:36;99851.13;;;19.42;48.87
79589;BME280;69067;51.930;4.492;2023-04-24T02:21:02;99855.25;;;19.44;48.99
79589;BME280;69067;51.930;4.492;2023-04-24T02:23:27;99855.25;;;19.44;48.89
79589;BME280;69067;51.930;4.492;2023-04-24T02:25:53;99857.59;;;19.47;48.66
79589;BME280;69067;51.930;4.492;2023-04-24T02:28:19;99867.94;;;19.44;48.60
79589;BME280;69067;51.930;4.492;2023-04-24T02:30:45;99869.00;;;19.43;49.03
79589;BME280;69067;51.930;4.492;2023-04-24T02:33:11;99869.19;;;19.41;48.77
79589;BME280;69067;51.930;4.492;2023-04-24T02:35:37;99863.38;;;19.44;47.81
79589;BME280;69067;51.930;4.492;2023-04-24T02:38:03;99869.19;;;19.41;49.28
79589;BME280;69067;51.930;4.492;2023-04-24T02:40:29;99867.31;;;19.42;48.19
79589;BME280;69067;51.930;4.492;2023-04-24T02:42:55;99871.06;;;19.41;49.75
79589;BME280;69067;51.930;4.492;2023-04-24T02:45:21;99865.47;;;19.42;49.17
79589;BME280;69067;51.930;4.492;2023-04-24T02:47:47;99865.84;;;19.39;49.05
79589;BME280;69067;51.930;4.492;2023-04-24T02:50:12;99869.00;;;19.43;48.78
79589;BME280;69067;51.930;4.492;2023-04-24T02:52:38;99877.09;;;19.43;48.72
79589;BME280;69067;51.930;4.492;2023-04-24T02:55:04;99870.63;;;19.44;48.60
79589;BME280;69067;51.930;4.492;2023-04-24T02:57:30;99873.56;;;19.42;48.05
79589;BME280;69067;51.930;4.492;2023-04-24T02:59:56;99878.13;;;19.42;48.37
79589;BME280;69067;51.930;4.492;2023-04-24T03:02:22;99868.34;;;19.41;49.00
79589;BME280;69067;51.930;4.492;2023-04-24T03:04:48;99876.44;;;19.41;48.47
79589;BME280;69067;51.930;4.492;2023-04-24T03:07:13;99872.09;;;19.40;47.92
79589;BME280;69067;51.930;4.492;2023-04-24T03:09:40;99874.59;;;19.41;48.79
79589;BME280;69067;51.930;4.492;2023-04-24T03:12:06;99873.53;;;19.36;49.36
79589;BME280;69067;51.930;4.492;2023-04-24T03:14:32;99878.13;;;19.42;48.70
79589;BME280;69067;51.930;4.492;2023-04-24T03:16:58;99881.84;;;19.41;48.98
79589;BME280;69067;51.930;4.492;2023-04-24T03:19:24;99879.16;;;19.41;48.11
79589;BME280;69067;51.930;4.492;2023-04-24T03:21:50;99870.41;;;19.39;48.77
79589;BME280;69067;51.930;4.492;2023-04-24T03:24:15;99871.25;;;19.39;48.70
79589;BME280;69067;51.930;4.492;2023-04-24T03:26:41;99873.75;;;19.41;48.04
79589;BME280;69067;51.930;4.492;2023-04-24T03:29:07;99858.97;;;19.37;48.67
79589;BME280;69067;51.930;4.492;2023-04-24T03:31:33;99861.28;;;19.40;49.73
79589;BME280;69067;51.930;4.492;2023-04-24T03:33:58;99858.97;;;19.37;48.89
79589;BME280;69067;51.930;4.492;2023-04-24T03:36:24;99853.38;;;19.38;48.66
79589;BME280;69067;51.930;4.492;2023-04-24T03:38:51;99847.16;;;19.38;48.42
79589;BME280;69067;51.930;4.492;2023-04-24T03:41:17;99840.91;;;19.37;48.75
79589;BME280;69067;51.930;4.492;2023-04-24T03:43:42;99846.31;;;19.37;49.05
79589;BME280;69067;51.930;4.492;2023-04-24T03:46:08;99873.31;;;19.37;48.44
79589;BME280;69067;51.930;4.492;2023-04-24T03:48:35;99871.25;;;19.39;49.43
79589;BME280;69067;51.930;4.492;2023-04-24T03:51:00;99874.16;;;19.38;48.53
79589;BME280;69067;51.930;4.492;2023-04-24T03:53:26;99872.28;;;19.38;49.50
79589;BME280;69067;51.930;4.492;2023-04-24T03:55:53;99874.34;;;19.36;48.82
79589;BME280;69067;51.930;4.492;2023-04-24T03:58:18;99878.09;;;19.35;49.33
79589;BME280;69067;51.930;4.492;2023-04-24T04:00:44;99883.28;;;19.37;48.93
79589;BME280;69067;51.930;4.492;2023-04-24T04:03:13;99887.84;;;19.36;48.52
79589;BME280;69067;51.930;4.492;2023-04-24T04:05:40;99885.38;;;19.35;48.36
79589;BME280;69067;51.930;4.492;2023-04-24T04:08:06;99896.16;;;19.35;48.29
79589;BME280;69067;51.930;4.492;2023-04-24T04:10:31;99892.44;;;19.36;48.66
79589;BME280;69067;51.930;4.492;2023-04-24T04:12:57;99898.03;;;19.34;49.25
79589;BME280;69067;51.930;4.492;2023-04-24T04:15:23;99901.56;;;19.35;49.11
79589;BME280;69067;51.930;4.492;2023-04-24T04:17:49;99900.72;;;19.34;48.49
79589;BME280;69067;51.930;4.492;2023-04-24T04:20:14;99908.81;;;19.34;49.00
79589;BME280;69067;51.930;4.492;2023-04-24T04:22:40;99903.22;;;19.36;49.28
79589;BME280;69067;51.930;4.492;2023-04-24T04:25:06;99924.84;;;19.36;49.31
79589;BME280;69067;51.930;4.492;2023-04-24T04:27:33;99918.59;;;19.35;48.76
79589;BME280;69067;51.930;4.492;2023-04-24T04:29:59;99916.47;;;19.31;48.83
79589;BME280;69067;51.930;4.492;2023-04-24T04:32:33;99935.63;;;19.36;49.84
79589;BME280;69067;51.930;4.492;2023-04-24T04:35:00;99930.44;;;19.34;48.21
79589;BME280;69067;51.930;4.492;2023-04-24T04:37:30;99951.00;;;19.35;49.27
79589;BME280;69067;51.930;4.492;2023-04-24T04:40:01;99954.72;;;19.34;48.70
79589;BME280;69067;51.930;4.492;2023-04-24T04:42:32;99958.84;;;19.30;49.03
79589;BME280;69067;51.930;4.492;2023-04-24T04:45:00;99973.63;;;19.34;48.79
79589;BME280;69067;51.930;4.492;2023-04-24T04:47:26;99981.72;;;19.34;49.68
79589;BME280;69067;51.930;4.492;2023-04-24T04:49:54;99984.59;;;19.33;48.50
79589;BME280;69067;51.930;4.492;2023-04-24T04:52:20;99994.56;;;19.32;49.35
79589;BME280;69067;51.930;4.492;2023-04-24T04:54:50;99999.97;;;19.32;49.12
79589;BME280;69067;51.930;4.492;2023-04-24T04:57:15;100000.81;;;19.33;48.63
79589;BME280;69067;51.930;4.492;2023-04-24T04:59:41;100014.50;;;19.31;49.71
79589;BME280;69067;51.930;4.492;2023-04-24T05:02:07;100023.22;;;19.33;49.65
79589;BME280;69067;51.930;4.492;2023-04-24T05:04:33;100032.34;;;19.32;49.10
79589;BME280;69067;51.930;4.492;2023-04-24T05:06:59;100036.91;;;19.32;48.77
79589;BME280;69067;51.930;4.492;2023-04-24T05:09:24;100040.66;;;19.31;49.28
79589;BME280;69067;51.930;4.492;2023-04-24T05:11:53;100047.72;;;19.32;48.03
79589;BME280;69067;51.930;4.492;2023-04-24T05:14:18;100052.28;;;19.31;48.47
79589;BME280;69067;51.930;4.492;2023-04-24T05:16:45;100048.56;;;19.32;49.30
79589;BME280;69067;51.930;4.492;2023-04-24T05:19:10;100058.94;;;19.28;48.70
79589;BME280;69067;51.930;4.492;2023-04-24T05:21:40;100080.09;;;19.32;49.72
79589;BME280;69067;51.930;4.492;2023-04-24T05:24:07;100077.41;;;19.32;49.00
79589;BME280;69067;51.930;4.492;2023-04-24T05:26:32;100094.63;;;19.31;48.87
79589;BME280;69067;51.930;4.492;2023-04-24T05:28:58;100103.75;;;19.29;48.58
79589;BME280;69067;51.930;4.492;2023-04-24T05:31:24;100096.72;;;19.28;49.71
79589;BME280;69067;51.930;4.492;2023-04-24T05:33:50;100117.06;;;19.31;48.84
79589;BME280;69067;51.930;4.492;2023-04-24T05:36:16;100127.84;;;19.31;49.01
79589;BME280;69067;51.930;4.492;2023-04-24T05:38:42;100136.78;;;19.32;49.46
79589;BME280;69067;51.930;4.492;2023-04-24T05:41:08;100138.84;;;19.29;48.98
79589;BME280;69067;51.930;4.492;2023-04-24T05:43:34;100140.94;;;19.27;49.24
79589;BME280;69067;51.930;4.492;2023-04-24T05:45:59;100148.00;;;19.28;48.70
79589;BME280;69067;51.930;4.492;2023-04-24T05:48:25;100154.63;;;19.26;49.18
79589;BME280;69067;51.930;4.492;2023-04-24T05:50:51;100156.94;;;19.29;48.89
79589;BME280;69067;51.930;4.492;2023-04-24T05:53:18;100162.53;;;19.27;48.56
79589;BME280;69067;51.930;4.492;2023-04-24T05:55:44;100163.56;;;19.26;48.58
79589;BME280;69067;51.930;4.492;2023-04-24T05:58:11;100172.97;;;19.37;49.54
79589;BME280;69067;51.930;4.492;2023-04-24T06:00:37;100175.03;;;19.35;49.61
79589;BME280;69067;51.930;4.492;2023-04-24T06:03:05;100182.31;;;19.35;49.69
79589;BME280;69067;51.930;4.492;2023-04-24T06:05:31;100190.13;;;19.29;49.75
79589;BME280;69067;51.930;4.492;2023-04-24T06:07:56;100205.31;;;19.31;49.64
79589;BME280;69067;51.930;4.492;2023-04-24T06:10:22;100220.66;;;19.30;49.18
79589;BME280;69067;51.930;4.492;2023-04-24T06:12:48;100213.63;;;19.29;49.43
79589;BME280;69067;51.930;4.492;2023-04-24T06:15:14;100239.56;;;19.30;49.61
79589;BME280;69067;51.930;4.492;2023-04-24T06:17:39;100238.09;;;19.27;50.44
79589;BME280;69067;51.930;4.492;2023-04-24T06:20:06;100242.25;;;19.30;49.28
79589;BME280;69067;51.930;4.492;2023-04-24T06:22:33;100239.97;;;19.27;49.47
79589;BME280;69067;51.930;4.492;2023-04-24T06:24:59;100264.06;;;19.28;49.71
79589;BME280;69067;51.930;4.492;2023-04-24T06:27:25;100257.00;;;19.27;49.85
79589;BME280;69067;51.930;4.492;2023-04-24T06:29:51;100265.09;;;19.27;48.64
79589;BME280;69067;51.930;4.492;2023-04-24T06:32:23;100269.84;;;19.25;49.75
79589;BME280;69067;51.930;4.492;2023-04-24T06:34:51;100285.66;;;19.28;49.78
79589;BME280;69067;51.930;4.492;2023-04-24T06:37:19;100282.31;;;19.26;49.63
79589;BME280;69067;51.930;4.492;2023-04-24T06:39:46;100285.84;;;19.27;50.24
79589;BME280;69067;51.930;4.492;2023-04-24T06:42:12;100298.50;;;19.26;49.36
79589;BME280;69067;51.930;4.492;2023-04-24T06:44:37;100305.59;;;19.27;49.03
79589;BME280;69067;51.930;4.492;2023-04-24T06:47:10;100307.44;;;19.27;49.05
79589;BME280;69067;51.930;4.492;2023-04-24T06:49:37;100314.72;;;19.26;48.78
79589;BME280;69067;51.930;4.492;2023-04-24T06:52:03;100317.78;;;19.23;49.43
79589;BME280;69067;51.930;4.492;2023-04-24T06:54:30;100324.66;;;19.26;50.24
79589;BME280;69067;51.930;4.492;2023-04-24T06:56:56;100331.94;;;19.25;48.92
79589;BME280;69067;51.930;4.492;2023-04-24T06:59:26;100332.63;;;19.34;48.68
79589;BME280;69067;51.930;4.492;2023-04-24T07:01:52;100331.41;;;19.37;49.44
79589;BME280;69067;51.930;4.492;2023-04-24T07:04:18;100335.53;;;19.33;49.25
79589;BME280;69067;51.930;4.492;2023-04-24T07:06:45;100347.16;;;19.33;50.02
79589;BME280;69067;51.930;4.492;2023-04-24T07:09:14;100347.53;;;19.30;50.09
79589;BME280;69067;51.930;4.492;2023-04-24T07:11:47;100348.78;;;19.27;49.45
79589;BME280;69067;51.930;4.492;2023-04-24T07:14:13;100362.47;;;19.26;50.34
79589;BME280;69067;51.930;4.492;2023-04-24T07:16:39;100362.47;;;19.26;49.89
79589;BME280;69067;51.930;4.492;2023-04-24T07:19:06;100374.09;;;19.26;49.78
79589;BME280;69067;51.930;4.492;2023-04-24T07:21:31;100383.03;;;19.27;49.15
79589;BME280;69067;51.930;4.492;2023-04-24T07:23:58;100384.22;;;19.24;50.23
79589;BME280;69067;51.930;4.492;2023-04-24T07:26:25;100399.41;;;19.25;49.10
79589;BME280;69067;51.930;4.492;2023-04-24T07:28:52;100394.19;;;19.24;50.43
79589;BME280;69067;51.930;4.492;2023-04-24T07:31:18;100395.22;;;19.23;50.45
79589;BME280;69067;51.930;4.492;2023-04-24T07:33:44;100403.13;;;19.24;49.80
79589;BME280;69067;51.930;4.492;2023-04-24T07:36:09;100408.53;;;19.24;49.40
79589;BME280;69067;51.930;4.492;2023-04-24T07:38:41;100408.91;;;19.21;48.98
79589;BME280;69067;51.930;4.492;2023-04-24T07:41:08;100419.72;;;19.21;49.85
79589;BME280;69067;51.930;4.492;2023-04-24T07:43:34;100418.47;;;19.24;49.60
79589;BME280;69067;51.930;4.492;2023-04-24T07:46:00;100423.03;;;19.23;48.58
79589;BME280;69067;51.930;4.492;2023-04-24T07:48:26;100437.38;;;19.24;50.33
79589;BME280;69067;51.930;4.492;2023-04-24T07:50:53;100438.41;;;19.23;49.65
79589;BME280;69067;51.930;4.492;2023-04-24T07:53:19;100440.66;;;19.19;49.84
79589;BME280;69067;51.930;4.492;2023-04-24T07:55:45;100445.66;;;19.22;49.07
79589;BME280;69067;51.930;4.492;2023-04-24T07:58:11;100452.94;;;19.22;49.42
79589;BME280;69067;51.930;4.492;2023-04-24T08:00:36;100452.94;;;19.22;49.08
79589;BME280;69067;51.930;4.492;2023-04-24T08:03:02;100457.50;;;19.21;49.35
79589;BME280;69067;51.930;4.492;2023-04-24T08:05:28;100457.88;;;19.18;48.69
79589;BME280;69067;51.930;4.492;2023-04-24T08:07:54;100469.50;;;19.19;48.60
79589;BME280;69067;51.930;4.492;2023-04-24T08:10:22;100469.50;;;19.19;49.88
79589;BME280;69067;51.930;4.492;2023-04-24T08:12:48;100477.41;;;19.20;50.17
79589;BME280;69067;51.930;4.492;2023-04-24T08:15:14;100474.06;;;19.18;49.23
79589;BME280;69067;51.930;4.492;2023-04-24T08:17:40;100469.88;;;19.16;49.00
79589;BME280;69067;51.930;4.492;2023-04-24T08:20:11;100490.63;;;19.15;49.35
79589;BME280;69067;51.930;4.492;2023-04-24T08:22:39;100489.59;;;19.16;49.36
79589;BME280;69067;51.930;4.492;2023-04-24T08:25:06;100493.31;;;19.15;49.06
79589;BME280;69067;51.930;4.492;2023-04-24T08:27:32;100496.50;;;19.19;50.19
79589;BME280;69067;51.930;4.492;2023-04-24T08:29:58;100505.63;;;19.18;49.16
79589;BME280;69067;51.930;4.492;2023-04-24T08:32:27;100515.97;;;19.14;49.41
79589;BME280;69067;51.930;4.492;2023-04-24T08:34:56;100517.59;;;19.15;48.78
79589;BME280;69067;51.930;4.492;2023-04-24T08:37:23;100525.69;;;19.15;48.33
79589;BME280;69067;51.930;4.492;2023-04-24T08:39:49;100528.41;;;19.15;48.79
79589;BME280;69067;51.930;4.492;2023-04-24T08:42:17;100533.63;;;19.17;49.49
79589;BME280;69067;51.930;4.492;2023-04-24T08:44:44;100539.19;;;19.15;49.25
79589;BME280;69067;51.930;4.492;2023-04-24T08:47:11;100544.41;;;19.17;49.14
79589;BME280;69067;51.930;4.492;2023-04-24T08:49:38;100553.53;;;19.16;49.61
79589;BME280;69067;51.930;4.492;2023-04-24T08:52:05;100554.09;;;19.11;49.66
79589;BME280;69067;51.930;4.492;2023-04-24T08:54:33;100549.53;;;19.12;49.57
79589;BME280;69067;51.930;4.492;2023-04-24T08:57:03;100555.59;;;19.14;48.99
79589;BME280;69067;51.930;4.492;2023-04-24T08:59:31;100556.22;;;19.16;49.26
79589;BME280;69067;51.930;4.492;2023-04-24T09:01:57;100561.00;;;19.14;49.61
79589;BME280;69067;51.930;4.492;2023-04-24T09:04:24;100561.00;;;19.14;49.73
79589;BME280;69067;51.930;4.492;2023-04-24T09:06:52;100554.94;;;19.12;49.60
79589;BME280;69067;51.930;4.492;2023-04-24T09:09:22;100564.06;;;19.11;49.02
79589;BME280;69067;51.930;4.492;2023-04-24T09:11:49;100564.72;;;19.13;49.18
79589;BME280;69067;51.930;4.492;2023-04-24T09:14:17;100573.00;;;19.11;49.73
79589;BME280;69067;51.930;4.492;2023-04-24T09:16:43;100576.53;;;19.12;49.39
79589;BME280;69067;51.930;4.492;2023-04-24T09:19:08;100583.78;;;19.11;48.97
79589;BME280;69067;51.930;4.492;2023-04-24T09:21:36;100584.81;;;19.10;48.85
79589;BME280;69067;51.930;4.492;2023-04-24T09:24:04;100576.72;;;19.10;49.44
79589;BME280;69067;51.930;4.492;2023-04-24T09:26:34;100587.69;;;19.09;49.80
79589;BME280;69067;51.930;4.492;2023-04-24T09:29:02;100577.94;;;19.08;48.90
79589;BME280;69067;51.930;4.492;2023-04-24T09:31:30;100587.50;;;19.10;49.22
79589;BME280;69067;51.930;4.492;2023-04-24T09:33:59;100593.56;;;19.12;49.30
79589;BME280;69067;51.930;4.492;2023-04-24T09:36:30;100590.22;;;19.10;49.31
79589;BME280;69067;51.930;4.492;2023-04-24T09:39:00;100594.59;;;19.11;48.45
79589;BME280;69067;51.930;4.492;2023-04-24T09:41:27;100592.91;;;19.10;48.71
79589;BME280;69067;51.930;4.492;2023-04-24T09:43:55;100597.28;;;19.11;48.49
79589;BME280;69067;51.930;4.492;2023-04-24T09:46:29;100621.75;;;19.10;49.14
79589;BME280;69067;51.930;4.492;2023-04-24T09:49:08;100624.66;;;19.08;49.54
79589;BME280;69067;51.930;4.492;2023-04-24T09:51:42;100624.44;;;19.10;49.22
79589;BME280;69067;51.930;4.492;2023-04-24T09:54:19;100626.31;;;19.09;49.04
79589;BME280;69067;51.930;4.492;2023-04-24T09:56:48;100634.59;;;19.08;49.37
79589;BME280;69067;51.930;4.492;2023-04-24T09:59:15;100636.47;;;19.07;48.52
79589;BME280;69067;51.930;4.492;2023-04-24T10:01:42;100637.31;;;19.08;48.88
79589;BME280;69067;51.930;4.492;2023-04-24T10:04:21;100634.78;;;19.06;49.24
79589;BME280;69067;51.930;4.492;2023-04-24T10:06:51;100636.47;;;19.07;49.51
79589;BME280;69067;51.930;4.492;2023-04-24T10:09:19;100640.84;;;19.08;48.75
79589;BME280;69067;51.930;4.492;2023-04-24T10:11:49;100653.50;;;19.08;49.33
79589;BME280;69067;51.930;4.492;2023-04-24T10:14:18;100655.34;;;19.07;48.85
79589;BME280;69067;51.930;4.492;2023-04-24T10:16:46;100662.44;;;19.08;49.24
79589;BME280;69067;51.930;4.492;2023-04-24T10:19:13;100668.00;;;19.07;49.63
79589;BME280;69067;51.930;4.492;2023-04-24T10:21:43;100659.06;;;19.06;48.95
79589;BME280;69067;51.930;4.492;2023-04-24T10:24:18;100665.31;;;19.07;48.48
79589;BME280;69067;51.930;4.492;2023-04-24T10:26:46;100660.75;;;19.07;48.74
79589;BME280;69067;51.930;4.492;2023-04-24T10:29:18;100667.84;;;19.08;50.01
79589;BME280;69067;51.930;4.492;2023-04-24T10:31:45;100669.88;;;19.06;49.08
79589;BME280;69067;51.930;4.492;2023-04-24T10:34:13;100676.94;;;19.07;49.33
79589;BME280;69067;51.930;4.492;2023-04-24T10:36:46;100665.31;;;19.07;48.24
79589;BME280;69067;51.930;4.492;2023-04-24T10:39:16;100658.59;;;19.03;49.08
79589;BME280;69067;51.930;4.492;2023-04-24T10:41:42;100676.09;;;19.07;48.17
79589;BME280;69067;51.930;4.492;2023-04-24T10:44:13;100666.69;;;19.03;48.64
79589;BME280;69067;51.930;4.492;2023-04-24T10:46:45;100676.28;;;19.05;49.50
79589;BME280;69067;51.930;4.492;2023-04-24T10:49:13;100687.06;;;19.05;48.93
79589;BME280;69067;51.930;4.492;2023-04-24T11:00:13;100692.47;;;19.05;48.73
79589;BME280;69067;51.930;4.492;2023-04-24T11:02:41;100677.97;;;19.06;48.29
79589;BME280;69067;51.930;4.492;2023-04-24T11:05:15;100697.03;;;19.05;49.21
79589;BME280;69067;51.930;4.492;2023-04-24T11:10:40;100713.41;;;19.03;48.50
79589;BME280;69067;51.930;4.492;2023-04-24T11:13:09;100708.84;;;19.04;49.40
79589;BME280;69067;51.930;4.492;2023-04-24T11:15:34;100715.91;;;19.05;49.19
79589;BME280;69067;51.930;4.492;2023-04-24T11:18:00;100715.25;;;19.03;49.07
79589;BME280;69067;51.930;4.492;2023-04-24T11:20:26;100726.72;;;19.05;48.85
79589;BME280;69067;51.930;4.492;2023-04-24T11:22:53;100726.88;;;19.03;49.23
79589;BME280;69067;51.930;4.492;2023-04-24T11:25:21;100729.59;;;19.03;48.68
79589;BME280;69067;51.930;4.492;2023-04-24T11:27:50;100737.50;;;19.05;48.30
79589;BME280;69067;51.930;4.492;2023-04-24T11:30:29;100736.66;;;19.04;49.52
79589;BME280;69067;51.930;4.492;2023-04-24T11:33:02;100749.31;;;19.04;49.09
79589;BME280;69067;51.930;4.492;2023-04-24T11:35:29;100755.56;;;19.04;48.70
79589;BME280;69067;51.930;4.492;2023-04-24T11:37:56;100750.34;;;19.03;48.92
79589;BME280;69067;51.930;4.492;2023-04-24T11:40:22;100761.13;;;19.03;48.42
79589;BME280;69067;51.930;4.492;2023-04-24T11:42:53;100752.19;;;19.02;48.35
79589;BME280;69067;51.930;4.492;2023-04-24T11:45:24;100756.56;;;19.03;48.85
79589;BME280;69067;51.930;4.492;2023-04-24T11:47:51;100762.81;;;19.04;48.96
79589;BME280;69067;51.930;4.492;2023-04-24T11:50:19;100762.69;;;18.97;49.25
79589;BME280;69067;51.930;4.492;2023-04-24T11:52:48;100769.22;;;19.03;48.91
79589;BME280;69067;51.930;4.492;2023-04-24T11:57:45;100769.44;;;19.01;48.62
79589;BME280;69067;51.930;4.492;2023-04-24T12:00:16;100784.41;;;19.04;49.20
79589;BME280;69067;51.930;4.492;2023-04-24T12:02:47;100775.47;;;19.03;48.05
79589;BME280;69067;51.930;4.492;2023-04-24T12:05:27;100782.72;;;19.03;48.79
79589;BME280;69067;51.930;4.492;2023-04-24T12:07:53;100781.88;;;19.02;48.69
79589;BME280;69067;51.930;4.492;2023-04-24T12:10:31;100776.00;;;18.99;49.28
79589;BME280;69067;51.930;4.492;2023-04-24T12:12:59;100788.94;;;19.03;48.96
79589;BME280;69067;51.930;4.492;2023-04-24T12:15:26;100794.34;;;19.03;48.80
79589;BME280;69067;51.930;4.492;2023-04-24T12:17:53;100791.81;;;19.02;48.80
79589;BME280;69067;51.930;4.492;2023-04-24T12:20:28;100792.66;;;19.02;47.92
79589;BME280;69067;51.930;4.492;2023-04-24T12:22:58;100798.91;;;19.03;49.08
79589;BME280;69067;51.930;4.492;2023-04-24T12:25:28;100794.72;;;19.00;48.49
79589;BME280;69067;51.930;4.492;2023-04-24T12:28:09;100813.41;;;19.02;48.83
79589;BME280;69067;51.930;4.492;2023-04-24T12:30:42;100812.41;;;19.03;48.15
79589;BME280;69067;51.930;4.492;2023-04-24T12:33:18;100813.25;;;19.03;48.78
79589;BME280;69067;51.930;4.492;2023-04-24T12:35:45;100821.34;;;19.03;49.02
79589;BME280;69067;51.930;4.492;2023-04-24T12:38:15;100817.78;;;19.03;48.69
79589;BME280;69067;51.930;4.492;2023-04-24T12:40:43;100817.78;;;19.03;48.09
79589;BME280;69067;51.930;4.492;2023-04-24T12:43:18;100814.25;;;19.02;49.28
79589;BME280;69067;51.930;4.492;2023-04-24T12:45:45;100816.09;;;19.02;48.28
79589;BME280;69067;51.930;4.492;2023-04-24T12:48:12;100818.47;;;19.05;48.44
79589;BME280;69067;51.930;4.492;2023-04-24T12:50:39;100813.41;;;19.02;49.17
79589;BME280;69067;51.930;4.492;2023-04-24T12:53:07;100818.00;;;19.01;49.23
79589;BME280;69067;51.930;4.492;2023-04-24T12:55:34;100818.63;;;19.03;48.35
79589;BME280;69067;51.930;4.492;2023-04-24T12:58:00;100819.66;;;19.02;48.16
79589;BME280;69067;51.930;4.492;2023-04-24T13:00:27;100835.84;;;19.02;48.51
79589;BME280;69067;51.930;4.492;2023-04-24T13:02:53;100819.66;;;19.02;49.60
79589;BME280;69067;51.930;4.492;2023-04-24T13:05:18;100821.72;;;19.00;48.68
79589;BME280;69067;51.930;4.492;2023-04-24T13:07:44;100824.03;;;19.03;48.64